createdAt,value
2018-12-02T00:21:27.170Z,96682.39
2018-12-02T00:23:56.516Z,96674.88
2018-12-02T00:26:25.772Z,96666.41
2018-12-02T00:28:54.993Z,96673.05
2018-12-02T00:31:24.551Z,96668.05
2018-12-02T00:33:53.875Z,96664.06
2018-12-02T00:36:23.159Z,96657.03
2018-12-02T00:38:52.425Z,96656.36
2018-12-02T00:41:21.593Z,96651.85
2018-12-02T00:43:50.915Z,96639.29
2018-12-02T00:46:20.185Z,96635.54
2018-12-02T00:48:49.497Z,96626.05
2018-12-02T00:51:18.795Z,96621.48
2018-12-02T00:53:48.026Z,96621.10
2018-12-02T00:56:16.036Z,96613.65
2018-12-02T00:58:45.303Z,96611.92
2018-12-02T01:01:14.562Z,96612.92
2018-12-02T01:03:43.812Z,96609.61
2018-12-02T01:06:14.098Z,96608.83
2018-12-02T01:08:42.304Z,96611.44
2018-12-02T01:11:11.694Z,96606.43
2018-12-02T01:13:40.957Z,96603.92
2018-12-02T01:16:10.266Z,96611.44
2018-12-02T01:18:39.615Z,96610.18
2018-12-02T01:21:08.924Z,96597.34
2018-12-02T01:23:38.215Z,96603.30
2018-12-02T01:26:07.548Z,96600.85
2018-12-02T01:28:36.862Z,96600.80
2018-12-02T01:31:06.459Z,96593.34
2018-12-02T01:33:35.692Z,96590.84
2018-12-02T01:36:05.053Z,96590.84
2018-12-02T01:38:34.400Z,96587.56
2018-12-02T01:41:04.289Z,96582.56
2018-12-02T01:43:34.214Z,96575.83
2018-12-02T01:46:04.191Z,96577.42
2018-12-02T01:48:34.266Z,96566.51
2018-12-02T01:51:04.313Z,96555.10
2018-12-02T01:53:34.359Z,96553.80
2018-12-02T01:56:04.407Z,96550.39
2018-12-02T01:58:34.415Z,96551.25
2018-12-02T02:01:04.309Z,96547.55
2018-12-02T02:03:34.353Z,96546.30
2018-12-02T02:06:04.477Z,96547.08
2018-12-02T02:08:34.411Z,96546.64
2018-12-02T02:11:04.535Z,96541.30
2018-12-02T02:13:34.570Z,96536.39
2018-12-02T02:16:04.553Z,96533.80
2018-12-02T02:18:35.298Z,96539.70
2018-12-02T02:21:04.950Z,96533.89
2018-12-02T02:23:34.657Z,96531.39
2018-12-02T02:26:04.537Z,96532.64
2018-12-02T02:28:34.699Z,96513.31
2018-12-02T02:31:04.767Z,96524.03
2018-12-02T02:33:34.782Z,96525.48
2018-12-02T02:36:04.976Z,96511.53
2018-12-02T02:38:34.867Z,96498.45
2018-12-02T02:41:05.037Z,96497.55
2018-12-02T02:43:34.795Z,96493.41
2018-12-02T02:46:04.813Z,96495.39
2018-12-02T02:48:34.876Z,96491.53
2018-12-02T02:51:05.437Z,96496.92
2018-12-02T02:53:34.838Z,96489.48
2018-12-02T02:56:05.214Z,96489.48
2018-12-02T02:58:34.895Z,96481.88
2018-12-02T03:01:05.293Z,96480.05
2018-12-02T03:03:35.105Z,96471.64
2018-12-02T03:06:05.077Z,96484.52
2018-12-02T03:08:34.897Z,96465.63
2018-12-02T03:11:05.248Z,96468.81
2018-12-02T03:13:35.234Z,96466.44
2018-12-02T03:16:05.523Z,96467.13
2018-12-02T03:18:35.138Z,96470.43
2018-12-02T03:21:05.349Z,96458.61
2018-12-02T03:23:37.279Z,96470.20
2018-12-02T03:26:06.560Z,96465.20
2018-12-02T03:28:35.956Z,96454.19
2018-12-02T03:31:05.226Z,96459.19
2018-12-02T03:33:35.266Z,96456.55
2018-12-02T03:36:05.323Z,96449.05
2018-12-02T03:38:39.140Z,96456.55
2018-12-02T03:41:08.422Z,96449.81
2018-12-02T03:43:37.741Z,96437.27
2018-12-02T03:46:07.245Z,96444.43
2018-12-02T03:48:36.523Z,96437.38
2018-12-02T03:51:06.078Z,96435.69
2018-12-02T03:53:35.327Z,96436.46
2018-12-02T03:56:05.392Z,96440.68
2018-12-02T03:58:35.477Z,96432.81
2018-12-02T04:01:05.591Z,96428.29
2018-12-02T04:03:35.625Z,96429.06
2018-12-02T04:06:05.665Z,96431.56
2018-12-02T04:08:35.449Z,96424.55
2018-12-02T04:11:05.947Z,96426.70
2018-12-02T04:13:35.573Z,96422.48
2018-12-02T04:16:05.708Z,96418.30
2018-12-02T04:18:35.603Z,96430.27
2018-12-02T04:21:05.872Z,96426.47
2018-12-02T04:23:35.772Z,96423.97
2018-12-02T04:26:05.967Z,96425.73
2018-12-02T04:28:35.746Z,96419.07
2018-12-02T04:31:06.333Z,96428.29
2018-12-02T04:33:35.788Z,96413.25
2018-12-02T04:36:05.857Z,96406.58
2018-12-02T04:38:35.945Z,96410.33
2018-12-02T04:41:06.508Z,96410.07
2018-12-02T04:43:35.888Z,96410.07
2018-12-02T04:46:06.132Z,96409.98
2018-12-02T04:48:35.950Z,96408.30
2018-12-02T04:51:06.314Z,96401.81
2018-12-02T04:53:35.973Z,96399.55
2018-12-02T04:56:06.436Z,96387.95
2018-12-02T04:58:36.012Z,96386.23
2018-12-02T05:01:06.312Z,96378.84
2018-12-02T05:03:36.014Z,96380.51
2018-12-02T05:06:06.121Z,96374.70
2018-12-02T05:08:36.115Z,96373.97
2018-12-02T05:11:07.223Z,96375.99
2018-12-02T05:13:37.280Z,96379.74
2018-12-02T05:16:07.345Z,96377.38
2018-12-02T05:18:37.321Z,96375.88
2018-12-02T05:21:07.364Z,96373.03
2018-12-02T05:23:37.375Z,96374.28
2018-12-02T05:26:07.428Z,96365.06
2018-12-02T05:28:37.583Z,96369.72
2018-12-02T05:31:07.616Z,96366.44
2018-12-02T05:33:37.741Z,96361.06
2018-12-02T05:36:07.823Z,96363.56
2018-12-02T05:38:38.000Z,96364.47
2018-12-02T05:41:07.981Z,96371.14
2018-12-02T05:43:38.133Z,96361.14
2018-12-02T05:46:08.523Z,96361.97
2018-12-02T05:48:38.470Z,96359.47
2018-12-02T05:54:17.953Z,96354.59
2018-12-02T05:56:47.847Z,96367.48
2018-12-02T05:59:17.423Z,96353.30
2018-12-02T06:01:46.949Z,96346.19
2018-12-02T06:04:16.144Z,96353.34
2018-12-02T06:06:45.423Z,96350.37
2018-12-02T06:09:14.724Z,96353.78
2018-12-02T06:11:44.034Z,96355.84
2018-12-02T06:14:13.270Z,96361.23
2018-12-02T06:16:42.784Z,96364.59
2018-12-02T06:19:12.236Z,96352.19
2018-12-02T06:21:41.699Z,96352.80
2018-12-02T06:24:11.305Z,96354.91
2018-12-02T06:26:40.777Z,96349.14
2018-12-02T06:29:11.705Z,96353.75
2018-12-02T06:31:41.187Z,96349.19
2018-12-02T06:34:12.870Z,96347.59
2018-12-02T06:36:42.444Z,96345.56
2018-12-02T06:39:12.264Z,96343.49
2018-12-02T06:41:41.875Z,96345.21
2018-12-02T06:44:11.499Z,96347.71
2018-12-02T06:46:41.072Z,96352.80
2018-12-02T06:49:10.594Z,96355.30
2018-12-02T06:51:40.106Z,96348.70
2018-12-02T06:54:09.478Z,96336.29
2018-12-02T06:56:45.621Z,96321.28
2018-12-02T06:59:55.699Z,96328.35
2018-12-02T07:02:40.159Z,96325.59
2018-12-02T07:05:13.558Z,96304.81
2018-12-02T07:07:43.269Z,96291.52
2018-12-02T07:10:12.640Z,96282.72
2018-12-02T07:12:42.269Z,96284.88
2018-12-02T07:15:11.791Z,96287.38
2018-12-02T07:17:44.478Z,96292.38
2018-12-02T07:20:16.092Z,96290.82
2018-12-02T07:22:52.631Z,96293.41
2018-12-02T07:25:26.468Z,96285.95
2018-12-02T07:27:56.165Z,96326.87
2018-12-02T07:30:25.930Z,96295.60
2018-12-02T07:32:55.735Z,96310.22
2018-12-02T07:35:25.258Z,96299.44
2018-12-02T07:37:56.826Z,96296.16
2018-12-02T07:40:31.381Z,96280.02
2018-12-02T07:43:00.983Z,96274.70
2018-12-02T07:45:30.515Z,96279.79
2018-12-02T07:48:00.344Z,96279.86
2018-12-02T07:50:29.936Z,96278.19
2018-12-02T07:52:59.558Z,96280.65
2018-12-02T07:55:29.358Z,96267.39
2018-12-02T07:57:59.072Z,96249.05
2018-12-02T08:00:28.431Z,96250.84
2018-12-02T08:02:58.063Z,96252.18
2018-12-02T08:05:27.652Z,96256.13
2018-12-02T08:07:57.216Z,96279.98
2018-12-02T08:10:26.852Z,96282.95
2018-12-02T08:12:56.229Z,96289.30
2018-12-02T08:15:26.029Z,96290.63
2018-12-02T08:17:55.549Z,96294.89
2018-12-02T08:20:25.078Z,96284.91
2018-12-02T08:22:55.484Z,96286.24
2018-12-02T08:25:25.266Z,96267.47
2018-12-02T08:27:55.010Z,96264.17
2018-12-02T08:30:25.901Z,96260.85
2018-12-02T08:32:56.551Z,96257.13
2018-12-02T08:35:28.287Z,96263.47
2018-12-02T08:38:01.324Z,96253.45
2018-12-02T08:40:30.869Z,96249.30
2018-12-02T08:43:00.483Z,96239.72
2018-12-02T08:45:30.085Z,96240.19
2018-12-02T08:47:59.649Z,96236.11
2018-12-02T08:50:29.182Z,96233.75
2018-12-02T08:52:58.548Z,96238.83
2018-12-02T08:55:42.598Z,96242.23
2018-12-02T08:58:13.235Z,96246.42
2018-12-02T09:00:42.815Z,96240.66
2018-12-02T09:03:12.594Z,96249.07
2018-12-02T09:06:13.106Z,96245.78
2018-12-02T09:08:42.873Z,96238.38
2018-12-02T09:11:12.273Z,96239.27
2018-12-02T09:13:41.664Z,96235.15
2018-12-02T09:16:11.099Z,96232.72
2018-12-02T09:18:40.476Z,96229.38
2018-12-02T09:21:09.826Z,96224.41
2018-12-02T09:23:39.110Z,96224.48
2018-12-02T09:26:08.364Z,96226.20
2018-12-02T09:28:38.360Z,96216.20
2018-12-02T09:31:08.287Z,96205.50
2018-12-02T09:33:38.531Z,96198.84
2018-12-02T09:36:10.292Z,96207.31
2018-12-02T09:38:39.729Z,96205.77
2018-12-02T09:41:09.238Z,96209.16
2018-12-02T09:43:38.616Z,96200.92
2018-12-02T09:46:08.508Z,96194.33
2018-12-02T09:48:38.416Z,96181.06
2018-12-02T09:51:08.347Z,96176.14
2018-12-02T09:53:38.375Z,96182.87
2018-12-02T09:56:08.511Z,96183.37
2018-12-02T09:58:39.009Z,96180.53
2018-12-02T10:01:08.581Z,96172.18
2018-12-02T10:03:38.760Z,96179.40
2018-12-02T10:06:08.769Z,96163.16
2018-12-02T10:08:38.806Z,96165.77
2018-12-02T10:11:08.873Z,96156.55
2018-12-02T10:13:39.093Z,96162.00
2018-12-02T10:16:09.201Z,96154.91
2018-12-02T10:18:38.674Z,96162.58
2018-12-02T10:21:09.162Z,96161.02
2018-12-02T10:23:38.956Z,96166.98
2018-12-02T10:26:08.757Z,96164.51
2018-12-02T10:28:38.792Z,96173.78
2018-12-02T10:31:09.017Z,96169.65
2018-12-02T10:33:38.396Z,96165.88
2018-12-02T10:36:08.531Z,96164.69
2018-12-02T10:38:38.760Z,96163.95
2018-12-02T10:41:08.315Z,96155.65
2018-12-02T10:43:37.947Z,96157.45
2018-12-02T10:46:07.657Z,96153.41
2018-12-02T10:48:37.071Z,96136.34
2018-12-02T10:51:06.497Z,96140.62
2018-12-02T10:53:36.178Z,96142.76
2018-12-02T10:56:06.609Z,96144.44
2018-12-02T10:58:37.717Z,96143.67
2018-12-02T11:01:13.445Z,96136.25
2018-12-02T11:03:42.902Z,96123.75
2018-12-02T11:06:12.687Z,96118.78
2018-12-02T11:08:42.087Z,96119.66
2018-12-02T11:11:11.678Z,96110.52
2018-12-02T11:13:41.187Z,96119.84
2018-12-02T11:16:10.891Z,96111.47
2018-12-02T11:18:40.317Z,96112.36
2018-12-02T11:21:09.832Z,96107.33
2018-12-02T11:23:39.685Z,96104.02
2018-12-02T11:26:09.196Z,96108.67
2018-12-02T11:28:38.557Z,96115.88
2018-12-02T11:31:08.084Z,96105.87
2018-12-02T11:33:37.351Z,96106.38
2018-12-02T11:36:06.763Z,96095.05
2018-12-02T11:38:36.252Z,96084.98
2018-12-02T11:41:05.970Z,96086.79
2018-12-02T11:43:35.401Z,96087.21
2018-12-02T11:46:04.770Z,96086.45
2018-12-02T11:51:10.596Z,96070.31
2018-12-02T11:53:40.122Z,96072.09
2018-12-02T11:56:09.563Z,96075.52
2018-12-02T11:58:38.990Z,96073.05
2018-12-02T12:01:08.337Z,96073.50
2018-12-02T12:03:37.803Z,96074.84
2018-12-02T12:06:07.274Z,96076.55
2018-12-02T12:08:36.610Z,96083.75
2018-12-02T12:11:06.546Z,96084.59
2018-12-02T12:13:35.895Z,96090.91
2018-12-02T12:16:05.408Z,96083.41
2018-12-02T12:18:34.729Z,96086.38
2018-12-02T12:21:04.540Z,96084.28
2018-12-02T12:23:33.890Z,96094.38
2018-12-02T12:26:03.275Z,96073.08
2018-12-02T12:28:32.899Z,96071.44
2018-12-02T12:31:02.190Z,96072.73
2018-12-02T12:33:31.543Z,96066.06
2018-12-02T12:36:00.877Z,96062.33
2018-12-02T12:38:30.439Z,96065.27
2018-12-02T12:40:59.913Z,96056.08
2018-12-02T12:43:34.056Z,96057.77
2018-12-02T12:46:03.849Z,96047.73
2018-12-02T12:48:33.126Z,96041.45
2018-12-02T12:51:02.419Z,96047.73
2018-12-02T12:53:31.762Z,96041.83
2018-12-02T12:56:01.209Z,96050.73
2018-12-02T12:58:30.498Z,96043.58
2018-12-02T13:00:59.874Z,96042.73
2018-12-02T13:03:29.414Z,96031.45
2018-12-02T13:05:58.771Z,96020.20
2018-12-02T13:08:28.194Z,96018.59
2018-12-02T13:10:57.529Z,96016.11
2018-12-02T13:13:26.816Z,96011.98
2018-12-02T13:15:56.140Z,96009.93
2018-12-02T13:18:25.449Z,96001.16
2018-12-02T13:20:55.895Z,95998.72
2018-12-02T13:23:25.237Z,95990.39
2018-12-02T13:25:55.359Z,95992.97
2018-12-02T13:28:24.904Z,95990.48
2018-12-02T13:30:54.886Z,95991.34
2018-12-02T13:33:24.928Z,95987.20
2018-12-02T13:35:56.748Z,95989.81
2018-12-02T13:38:26.060Z,95991.48
2018-12-02T13:40:55.298Z,95994.88
2018-12-02T13:43:25.704Z,95991.57
2018-12-02T13:45:55.423Z,95994.59
2018-12-02T13:48:25.174Z,95995.47
2018-12-02T13:50:55.116Z,95998.47
2018-12-02T13:53:25.293Z,96010.70
2018-12-02T13:55:55.345Z,96017.86
2018-12-02T13:58:25.300Z,96016.20
2018-12-02T14:00:55.428Z,96014.97
2018-12-02T14:03:25.344Z,96020.41
2018-12-02T14:05:55.424Z,96016.23
2018-12-02T14:08:25.570Z,96008.26
2018-12-02T14:10:55.464Z,96009.52
2018-12-02T14:13:28.015Z,96008.65
2018-12-02T14:16:07.964Z,96012.02
2018-12-02T14:18:38.969Z,96004.48
2018-12-02T14:21:09.235Z,96010.80
2018-12-02T14:23:39.399Z,96004.92
2018-12-02T14:26:10.699Z,96006.23
2018-12-02T14:28:48.331Z,96005.45
2018-12-02T14:31:18.692Z,96014.66
2018-12-02T14:33:48.162Z,96015.55
2018-12-02T14:36:17.467Z,96014.28
2018-12-02T14:38:47.150Z,96016.40
2018-12-02T14:41:16.981Z,96009.73
2018-12-02T14:43:46.597Z,96003.93
2018-12-02T14:46:16.182Z,96009.06
2018-12-02T14:48:45.822Z,96012.06
2018-12-02T14:51:15.422Z,96012.55
2018-12-02T14:53:44.948Z,96014.29
2018-12-02T14:56:14.456Z,96017.69
2018-12-02T14:58:43.946Z,96015.23
2018-12-02T15:01:13.544Z,96003.98
2018-12-02T15:03:42.977Z,96002.06
2018-12-02T15:06:12.312Z,96013.14
2018-12-02T15:08:41.864Z,95998.97
2018-12-02T15:11:11.212Z,96009.17
2018-12-02T15:13:40.453Z,95996.65
2018-12-02T15:16:09.932Z,96006.79
2018-12-02T15:18:39.368Z,96002.15
2018-12-02T15:23:36.551Z,95997.56
2018-12-02T15:26:06.000Z,95997.59
2018-12-02T15:28:35.530Z,96000.97
2018-12-02T15:31:04.889Z,96004.75
2018-12-02T15:33:34.204Z,95995.08
2018-12-02T15:36:03.586Z,95997.20
2018-12-02T15:38:32.990Z,95993.81
2018-12-02T15:41:02.278Z,95991.72
2018-12-02T15:43:31.560Z,95999.75
2018-12-02T15:46:01.000Z,95993.40
2018-12-02T15:48:30.354Z,95991.31
2018-12-02T15:50:59.641Z,95989.63
2018-12-02T15:53:29.398Z,96007.77
2018-12-02T15:55:58.711Z,96000.17
2018-12-02T15:58:28.112Z,95997.65
2018-12-02T16:00:57.688Z,96008.17
2018-12-02T16:03:27.764Z,96001.03
2018-12-02T16:05:57.773Z,96009.02
2018-12-02T16:08:27.836Z,96013.66
2018-12-02T16:10:57.748Z,96017.87
2018-12-02T16:13:27.757Z,96013.67
2018-12-02T16:15:57.808Z,96024.23
2018-12-02T16:18:28.090Z,96019.15
2018-12-02T16:20:58.058Z,96028.88
2018-12-02T16:23:28.210Z,96030.55
2018-12-02T16:25:58.067Z,96032.25
2018-12-02T16:28:28.137Z,96025.50
2018-12-02T16:30:58.083Z,96024.25
2018-12-02T16:33:28.093Z,96022.98
2018-12-02T16:35:58.195Z,96017.06
2018-12-02T16:38:28.298Z,96020.44
2018-12-02T16:40:58.198Z,96014.53
2018-12-02T16:46:11.333Z,96006.09
2018-12-02T16:48:40.603Z,96011.16
2018-12-02T16:51:10.479Z,96000.20
2018-12-02T16:53:40.280Z,96018.76
2018-12-02T16:56:14.852Z,96012.02
2018-12-02T16:59:23.780Z,96016.23
2018-12-02T17:01:56.885Z,96016.65
2018-12-02T17:04:26.107Z,96015.37
2018-12-02T17:06:55.289Z,96023.41
2018-12-02T17:09:24.503Z,96031.42
2018-12-02T17:11:53.719Z,96030.56
2018-12-02T17:14:23.531Z,96033.08
2018-12-02T17:16:52.833Z,96032.24
2018-12-02T17:19:22.031Z,96036.05
2018-12-02T17:21:51.290Z,96042.38
2018-12-02T17:24:20.495Z,96047.45
2018-12-02T17:26:49.748Z,96044.47
2018-12-02T17:29:20.149Z,96042.80
2018-12-02T17:32:23.565Z,96053.35
2018-12-02T17:34:52.830Z,96041.12
2018-12-02T17:37:22.020Z,96063.48
2018-12-02T17:39:53.877Z,96066.43
2018-12-02T17:42:23.966Z,96051.66
2018-12-02T17:44:53.832Z,96075.29
2018-12-02T17:47:23.039Z,96078.23
2018-12-02T17:49:52.274Z,96078.66
2018-12-02T17:52:22.043Z,96079.50
2018-12-02T17:54:51.793Z,96079.50
2018-12-02T17:57:21.041Z,96071.06
2018-12-02T17:59:50.204Z,96079.50
2018-12-02T18:02:20.265Z,96077.81
2018-12-02T18:04:50.058Z,96071.06
2018-12-02T18:07:19.247Z,96084.98
2018-12-02T18:09:49.342Z,96081.19
2018-12-02T18:12:18.542Z,96079.48
2018-12-02T18:14:47.742Z,96084.57
2018-12-02T18:17:17.524Z,96083.72
2018-12-02T18:19:47.530Z,96074.02
2018-12-02T18:22:16.799Z,96081.18
2018-12-02T18:24:45.956Z,96080.77
2018-12-02T18:27:15.114Z,96067.26
2018-12-02T18:29:44.311Z,96069.38
2018-12-02T18:32:13.510Z,96075.30
2018-12-02T18:34:42.790Z,96074.44
2018-12-02T18:37:12.575Z,96073.17
2018-12-02T18:39:41.895Z,96074.03
2018-12-02T18:42:11.119Z,96057.57
2018-12-02T18:44:40.996Z,96066.02
2018-12-02T18:47:10.914Z,96067.28
2018-12-02T18:49:40.374Z,96067.69
2018-12-02T18:52:09.789Z,96065.16
2018-12-02T18:54:39.094Z,96073.17
2018-12-02T18:57:08.277Z,96071.08
2018-12-02T18:59:37.659Z,96075.28
2018-12-02T19:02:07.121Z,96069.38
2018-12-02T19:04:36.270Z,96069.38
2018-12-02T19:07:05.554Z,96067.26
2018-12-02T19:09:34.791Z,96070.20
2018-12-02T19:12:04.852Z,96071.48
2018-12-02T19:14:34.945Z,96073.61
2018-12-02T19:17:04.259Z,96071.08
2018-12-02T19:19:33.519Z,96070.22
2018-12-02T19:22:03.036Z,96060.53
2018-12-02T19:24:32.888Z,96065.16
2018-12-02T19:27:02.135Z,96063.48
2018-12-02T19:29:31.397Z,96067.70
2018-12-02T19:32:00.808Z,96060.95
2018-12-02T19:34:30.071Z,96061.78
2018-12-02T19:37:02.409Z,96060.94
2018-12-02T19:39:32.166Z,96069.38
2018-12-02T19:42:01.342Z,96061.36
2018-12-02T19:44:30.595Z,96060.94
2018-12-02T19:46:59.828Z,96056.70
2018-12-02T19:49:29.490Z,96049.95
2018-12-02T19:51:59.760Z,96055.43
2018-12-02T20:07:28.963Z,96050.77
2018-12-02T20:09:58.161Z,96065.11
2018-12-02T20:12:27.615Z,96064.30
2018-12-02T20:14:57.720Z,96065.56
2018-12-02T20:17:27.018Z,96071.02
2018-12-02T20:20:01.352Z,96064.69
2018-12-02T20:22:30.642Z,96060.45
2018-12-02T20:24:59.857Z,96062.59
2018-12-02T20:27:29.719Z,96061.74
2018-12-02T20:30:00.292Z,96062.57
2018-12-02T20:32:29.823Z,96065.52
2018-12-02T20:34:59.795Z,96060.02
2018-12-02T20:37:29.955Z,96065.95
2018-12-02T20:40:00.867Z,96069.34
2018-12-02T20:42:30.099Z,96067.64
2018-12-02T20:45:00.567Z,96068.06
2018-12-02T20:47:29.988Z,96066.81
2018-12-02T20:50:00.179Z,96060.90
2018-12-02T20:52:30.183Z,96048.23
2018-12-02T20:55:00.354Z,96051.59
2018-12-02T20:57:30.113Z,96056.66
2018-12-02T20:59:59.914Z,96060.04
2018-12-02T21:02:30.039Z,96056.67
2018-12-02T21:05:00.081Z,96054.55
2018-12-02T21:07:30.555Z,96050.75
2018-12-02T21:10:00.155Z,96049.05
2018-12-02T21:12:30.137Z,96054.13
2018-12-02T21:15:00.532Z,96049.46
2018-12-02T21:17:30.382Z,96052.86
2018-12-02T21:20:00.619Z,96047.35
2018-12-02T21:22:31.041Z,96047.37
2018-12-02T21:25:01.435Z,96055.80
2018-12-02T21:27:30.835Z,96048.20
2018-12-02T21:30:00.258Z,96047.35
2018-12-02T21:32:30.806Z,96043.98
2018-12-02T21:35:00.268Z,96044.83
2018-12-02T21:37:30.612Z,96043.16
2018-12-02T21:40:01.148Z,96036.39
2018-12-02T21:42:30.350Z,96043.14
2018-12-02T21:45:00.283Z,96038.89
2018-12-02T21:47:31.013Z,96047.35
2018-12-02T21:50:00.290Z,96043.16
2018-12-02T21:52:31.083Z,96045.27
2018-12-02T21:55:00.362Z,96045.69
2018-12-02T21:57:30.591Z,96050.30
2018-12-02T22:00:00.452Z,96048.20
2018-12-02T22:02:31.293Z,96050.75
2018-12-02T22:05:01.145Z,96056.66
2018-12-02T22:07:31.161Z,96056.24
2018-12-02T22:10:00.613Z,96056.23
2018-12-02T22:12:30.485Z,96055.83
2018-12-02T22:15:01.078Z,96066.80
2018-12-02T22:17:30.455Z,96059.17
2018-12-02T22:20:00.683Z,96065.11
2018-12-02T22:22:31.193Z,96066.77
2018-12-02T22:25:00.563Z,96066.77
2018-12-02T22:27:30.648Z,96071.86
2018-12-02T22:30:00.727Z,96067.63
2018-12-02T22:32:30.656Z,96067.22
2018-12-02T22:35:00.705Z,96077.78
2018-12-02T22:37:30.613Z,96071.02
2018-12-02T22:40:00.736Z,96072.73
2018-12-02T22:42:30.890Z,96068.50
2018-12-02T22:45:01.410Z,96065.12
2018-12-02T22:47:30.844Z,96063.87
2018-12-02T22:50:00.795Z,96060.48
2018-12-02T22:52:30.788Z,96065.98
2018-12-02T22:55:01.576Z,96060.91
2018-12-02T22:57:31.487Z,96065.56
2018-12-02T23:00:00.848Z,96060.91
2018-12-02T23:02:35.063Z,96065.14
2018-12-02T23:05:04.239Z,96059.23
2018-12-02T23:07:33.470Z,96061.78
2018-12-02T23:10:02.612Z,96059.25
2018-12-02T23:12:31.915Z,96056.71
2018-12-02T23:15:01.087Z,96065.16
2018-12-02T23:17:30.921Z,96063.45
2018-12-02T23:20:00.966Z,96065.58
2018-12-02T23:22:31.026Z,96064.73
2018-12-02T23:25:01.190Z,96060.94
2018-12-02T23:27:31.172Z,96063.45
2018-12-02T23:30:01.051Z,96068.54
2018-12-02T23:32:31.149Z,96069.37
2018-12-02T23:35:01.205Z,96065.98
2018-12-02T23:37:31.129Z,96067.25
2018-12-02T23:40:01.183Z,96063.45
2018-12-02T23:42:31.477Z,96062.19
2018-12-02T23:45:01.252Z,96066.01
2018-12-02T23:47:31.256Z,96061.76
2018-12-02T23:50:01.419Z,96060.09
2018-12-02T23:52:31.269Z,96062.61
2018-12-02T23:55:01.491Z,96055.01
2018-12-02T23:57:31.384Z,96055.85
